Time;durP1;ratioP1;P1;durP2;ratioP2;P2;SDS_P1;SDS_P2;PMS_P1;PMS_P2;Temp;Humidity;BMP_temperature;BMP_pressure;BME280_temperature;BME280_humidity;BME280_pressure;Samples;Min_cycle;Max_cycle;Signal;HPM_P1;HPM_P2
2023/05/06 00:02:00;;;;;;;10.33;4.30;;;9.70;99.90;;;;;;4445954;28;655940;-74
2023/05/06 00:04:47;;;;;;;12.80;4.67;;;9.70;99.90;;;;;;4424097;28;656598;-74
2023/05/06 00:07:35;;;;;;;10.67;4.20;;;9.70;99.90;;;;;;4430683;28;656434;-75
2023/05/06 00:10:22;;;;;;;8.23;4.37;;;9.70;99.90;;;;;;4442987;28;657146;-74
2023/05/06 00:13:10;;;;;;;9.37;4.53;;;9.60;99.90;;;;;;4431074;28;655746;-74
2023/05/06 00:15:57;;;;;;;8.20;4.37;;;9.60;99.90;;;;;;4443436;28;655547;-75
2023/05/06 00:18:46;;;;;;;7.17;4.53;;;9.60;99.90;;;;;;4436654;28;655786;-74
2023/05/06 00:21:33;;;;;;;6.80;4.10;;;9.50;99.90;;;;;;4414304;28;655903;-74
2023/05/06 00:24:21;;;;;;;8.57;4.20;;;9.50;99.90;;;;;;4421657;28;655874;-74
2023/05/06 00:27:08;;;;;;;7.57;4.37;;;9.50;99.90;;;;;;4437780;28;656873;-74
2023/05/06 00:29:56;;;;;;;11.53;4.20;;;9.40;99.90;;;;;;4432466;28;655847;-74
2023/05/06 00:32:43;;;;;;;7.80;4.40;;;9.40;99.90;;;;;;4439230;28;656868;-74
2023/05/06 00:35:32;;;;;;;6.73;4.00;;;9.40;99.90;;;;;;4421989;28;656351;-74
2023/05/06 00:38:19;;;;;;;13.20;4.90;;;9.40;99.90;;;;;;4434525;28;655339;-74
2023/05/06 00:41:07;;;;;;;11.03;4.33;;;9.40;99.90;;;;;;4419475;28;656924;-74
2023/05/06 00:43:54;;;;;;;11.33;4.13;;;9.40;99.90;;;;;;4435196;28;656995;-74
2023/05/06 00:46:42;;;;;;;16.67;4.57;;;9.40;99.90;;;;;;4413042;28;657258;-74
2023/05/06 00:49:29;;;;;;;8.10;4.67;;;9.30;99.90;;;;;;4437670;28;656179;-74
2023/05/06 00:52:18;;;;;;;11.30;4.63;;;9.30;99.90;;;;;;4420414;28;655640;-75
2023/05/06 00:55:06;;;;;;;8.68;4.35;;;9.30;99.90;;;;;;4424292;28;656289;-74
2023/05/06 00:57:54;;;;;;;9.90;4.67;;;9.20;99.90;;;;;;4440990;28;655757;-74
2023/05/06 01:00:42;;;;;;;9.33;4.60;;;9.10;99.90;;;;;;4422129;28;655310;-75
2023/05/06 01:03:30;;;;;;;11.60;4.53;;;9.10;99.90;;;;;;4444027;28;656806;-74
2023/05/06 01:06:19;;;;;;;9.17;5.20;;;9.10;99.90;;;;;;4417672;28;657010;-75
2023/05/06 01:09:13;;;;;;;6.60;4.53;;;9.00;99.90;;;;;;4414496;28;655529;-74
2023/05/06 01:12:04;;;;;;;15.60;5.07;;;9.00;99.90;;;;;;4399215;28;655520;-74
2023/05/06 01:14:55;;;;;;;12.03;4.60;;;8.90;99.90;;;;;;4417452;28;656325;-74
2023/05/06 01:17:43;;;;;;;12.40;4.80;;;8.90;99.90;;;;;;4410581;28;656497;-74
2023/05/06 01:20:30;;;;;;;8.43;4.87;;;9.00;99.90;;;;;;4417390;28;656379;-74
2023/05/06 01:23:19;;;;;;;11.87;4.90;;;8.90;99.90;;;;;;4437523;28;656142;-74
2023/05/06 01:26:06;;;;;;;10.30;4.73;;;8.90;99.90;;;;;;4419887;28;657273;-75
2023/05/06 01:28:54;;;;;;;14.73;5.63;;;8.90;99.90;;;;;;4436844;28;656637;-75
2023/05/06 01:31:45;;;;;;;9.87;5.00;;;8.80;99.90;;;;;;4416313;28;657442;-74
2023/05/06 01:34:35;;;;;;;9.73;4.60;;;8.80;99.90;;;;;;4423098;28;655715;-74
2023/05/06 01:37:25;;;;;;;15.60;4.67;;;8.80;99.90;;;;;;4418857;28;658448;-74
2023/05/06 01:40:14;;;;;;;10.57;5.47;;;8.70;99.90;;;;;;4418455;28;656913;-75
2023/05/06 01:43:02;;;;;;;11.13;5.53;;;8.70;99.90;;;;;;4418147;28;656974;-74
2023/05/06 01:45:52;;;;;;;11.17;6.20;;;8.70;99.90;;;;;;4441955;28;656282;-74
2023/05/06 01:48:39;;;;;;;14.27;5.53;;;8.70;99.90;;;;;;4411589;28;656374;-74
2023/05/06 01:51:26;;;;;;;12.40;5.43;;;8.70;99.90;;;;;;4256123;28;656608;-74
2023/05/06 01:54:13;;;;;;;8.13;5.03;;;8.70;99.90;;;;;;4262089;28;656300;-74
2023/05/06 01:57:02;;;;;;;12.30;5.10;;;8.60;99.90;;;;;;4341567;28;655840;-74
2023/05/06 01:59:50;;;;;;;8.53;5.00;;;8.60;99.90;;;;;;4440643;28;656840;-74
2023/05/06 02:02:37;;;;;;;13.03;5.50;;;8.60;99.90;;;;;;4418420;28;655801;-75
2023/05/06 02:05:25;;;;;;;6.63;4.57;;;8.60;99.90;;;;;;4428929;28;656634;-74
2023/05/06 02:08:12;;;;;;;8.03;4.70;;;8.60;99.90;;;;;;4411955;28;656857;-75
2023/05/06 02:10:59;;;;;;;8.00;4.63;;;8.60;99.90;;;;;;4435909;28;655374;-75
2023/05/06 02:13:48;;;;;;;9.57;4.87;;;8.60;99.90;;;;;;4426664;28;655251;-74
2023/05/06 02:16:35;;;;;;;9.37;4.60;;;8.60;99.90;;;;;;4418285;28;655992;-75
2023/05/06 02:19:22;;;;;;;14.30;5.00;;;8.70;99.90;;;;;;4440181;28;656382;-75
2023/05/06 02:22:10;;;;;;;8.80;4.63;;;8.70;99.90;;;;;;4428981;28;656430;-73
2023/05/06 02:24:57;;;;;;;9.90;4.97;;;8.70;99.90;;;;;;4438757;28;655812;-75
2023/05/06 02:27:44;;;;;;;10.17;4.87;;;8.60;99.90;;;;;;4429040;28;656271;-74
2023/05/06 02:30:34;;;;;;;9.77;4.30;;;8.60;99.90;;;;;;4419143;28;657209;-75
2023/05/06 02:33:21;;;;;;;6.80;4.60;;;8.50;99.90;;;;;;4415551;28;655238;-75
2023/05/06 02:36:09;;;;;;;11.53;4.70;;;8.50;99.90;;;;;;4437858;28;655513;-74
2023/05/06 02:38:56;;;;;;;8.20;4.33;;;8.60;99.90;;;;;;4417420;28;656582;-74
2023/05/06 02:41:43;;;;;;;9.33;4.40;;;8.60;99.90;;;;;;4434914;28;655911;-75
2023/05/06 02:44:30;;;;;;;9.87;4.57;;;8.60;99.90;;;;;;4422325;28;655337;-74
2023/05/06 02:47:19;;;;;;;9.23;5.00;;;8.50;99.90;;;;;;4439142;28;656338;-75
2023/05/06 02:50:07;;;;;;;7.00;4.20;;;8.50;99.90;;;;;;4418555;28;656044;-75
2023/05/06 02:52:54;;;;;;;9.73;4.47;;;8.50;99.90;;;;;;4436587;28;655411;-75
2023/05/06 02:55:41;;;;;;;8.73;4.67;;;8.60;99.90;;;;;;4411586;28;655462;-74
2023/05/06 02:58:29;;;;;;;10.70;4.33;;;8.60;99.90;;;;;;4430854;28;656534;-74
2023/05/06 03:01:16;;;;;;;11.50;4.73;;;8.60;99.90;;;;;;4415808;28;656698;-75
2023/05/06 03:04:04;;;;;;;9.93;4.50;;;8.60;99.90;;;;;;4441901;28;656999;-75
2023/05/06 03:06:52;;;;;;;7.00;4.00;;;8.60;99.90;;;;;;4420620;28;655999;-75
2023/05/06 03:09:39;;;;;;;10.33;4.43;;;8.60;99.90;;;;;;4436270;28;655420;-74
2023/05/06 03:12:26;;;;;;;11.80;4.90;;;8.60;99.90;;;;;;4416313;28;657608;-75
2023/05/06 03:15:13;;;;;;;11.20;4.33;;;8.60;99.90;;;;;;4431966;28;657089;-74
2023/05/06 03:18:01;;;;;;;6.70;4.17;;;8.60;99.90;;;;;;4418775;28;657526;-74
2023/05/06 03:20:49;;;;;;;7.20;4.40;;;8.60;99.90;;;;;;4443089;28;656222;-74
2023/05/06 03:23:37;;;;;;;12.47;4.90;;;8.60;99.90;;;;;;4417431;28;656317;-74
2023/05/06 03:26:24;;;;;;;7.45;4.65;;;8.70;99.90;;;;;;4437172;28;656261;-74
2023/05/06 03:29:11;;;;;;;7.47;4.20;;;8.70;99.90;;;;;;4419701;28;655608;-74
2023/05/06 03:32:00;;;;;;;8.23;4.40;;;8.70;99.90;;;;;;4436368;28;656154;-75
2023/05/06 03:34:47;;;;;;;7.20;4.50;;;8.70;99.90;;;;;;4419119;28;655592;-74
2023/05/06 03:37:36;;;;;;;8.83;4.57;;;8.70;99.90;;;;;;4442508;28;655017;-75
2023/05/06 03:40:23;;;;;;;7.27;4.53;;;8.70;99.90;;;;;;4419892;28;656291;-75
2023/05/06 03:43:10;;;;;;;9.65;4.05;;;8.70;99.90;;;;;;4419529;28;655406;-74
2023/05/06 03:45:57;;;;;;;13.17;4.20;;;8.70;99.90;;;;;;4439014;28;655372;-74
2023/05/06 03:48:45;;;;;;;12.57;4.27;;;8.80;99.90;;;;;;4433941;28;656395;-74
2023/05/06 03:51:32;;;;;;;6.73;4.13;;;8.80;99.90;;;;;;4440809;28;656328;-75
2023/05/06 03:54:22;;;;;;;10.30;4.47;;;8.90;99.90;;;;;;4434997;28;656221;-74
2023/05/06 03:57:09;;;;;;;10.30;4.63;;;8.90;99.90;;;;;;4439511;28;656408;-75
2023/05/06 03:59:57;;;;;;;8.87;4.67;;;9.00;99.90;;;;;;4418364;28;656876;-75
2023/05/06 04:02:44;;;;;;;9.57;4.77;;;9.00;99.90;;;;;;4439502;28;655744;-74
2023/05/06 04:05:31;;;;;;;9.70;4.38;;;9.00;99.90;;;;;;4419218;28;656229;-74
2023/05/06 04:08:18;;;;;;;7.73;4.00;;;9.10;99.90;;;;;;4439324;28;655602;-75
2023/05/06 04:11:07;;;;;;;7.43;4.27;;;9.10;99.90;;;;;;4418418;28;656107;-75
2023/05/06 04:13:54;;;;;;;13.43;4.10;;;9.10;99.90;;;;;;4442477;28;656175;-74
2023/05/06 04:16:41;;;;;;;9.20;4.50;;;9.20;99.90;;;;;;4421876;28;657150;-75
2023/05/06 04:19:29;;;;;;;7.60;4.07;;;9.30;99.90;;;;;;4440369;28;655214;-74
2023/05/06 04:22:16;;;;;;;7.77;4.03;;;9.30;99.90;;;;;;4419525;28;655453;-74
2023/05/06 04:25:03;;;;;;;10.77;4.77;;;9.30;99.90;;;;;;4436127;28;655121;-74
2023/05/06 04:27:52;;;;;;;7.87;4.23;;;9.40;99.90;;;;;;4420806;28;657203;-73
2023/05/06 04:30:39;;;;;;;8.43;3.93;;;9.50;99.90;;;;;;4442429;28;656087;-74
2023/05/06 04:33:27;;;;;;;7.90;3.93;;;9.50;99.90;;;;;;4421780;28;656046;-74
2023/05/06 04:36:14;;;;;;;6.90;4.20;;;9.60;99.90;;;;;;4436904;28;655041;-74
2023/05/06 04:39:01;;;;;;;11.20;4.50;;;9.60;99.90;;;;;;4416818;28;656165;-74
2023/05/06 04:41:49;;;;;;;7.40;4.27;;;9.70;99.90;;;;;;4435689;28;656433;-75
2023/05/06 04:44:37;;;;;;;5.97;4.10;;;9.70;99.90;;;;;;4422057;28;655508;-74
2023/05/06 04:47:25;;;;;;;9.43;4.23;;;9.70;99.90;;;;;;4441894;28;656036;-74
2023/05/06 04:50:12;;;;;;;9.63;4.40;;;9.80;99.90;;;;;;4419998;28;655566;-74
2023/05/06 04:52:59;;;;;;;10.37;4.13;;;9.80;99.90;;;;;;4436939;28;655365;-74
2023/05/06 04:55:46;;;;;;;10.33;4.30;;;9.90;99.90;;;;;;4410997;28;656683;-75
2023/05/06 04:58:34;;;;;;;8.40;4.23;;;10.00;99.90;;;;;;4441733;28;656614;-74
2023/05/06 05:01:23;;;;;;;8.20;3.90;;;10.00;99.90;;;;;;4420959;28;656587;-74
2023/05/06 05:04:10;;;;;;;5.97;4.00;;;10.10;99.90;;;;;;4425234;28;656836;-74
2023/05/06 05:06:57;;;;;;;8.73;4.03;;;10.00;99.90;;;;;;4442048;28;657480;-74
2023/05/06 05:09:45;;;;;;;12.07;4.77;;;10.10;99.90;;;;;;4439936;28;656546;-75
2023/05/06 05:12:32;;;;;;;9.20;5.57;;;10.20;99.90;;;;;;4439787;28;657852;-74
2023/05/06 05:15:21;;;;;;;8.83;5.20;;;10.40;99.90;;;;;;4430023;28;656628;-74
2023/05/06 05:18:09;;;;;;;8.30;4.67;;;10.40;99.90;;;;;;4439443;28;656985;-73
2023/05/06 05:20:56;;;;;;;10.77;4.60;;;10.60;99.90;;;;;;4419400;28;656479;-74
2023/05/06 05:23:44;;;;;;;10.13;4.53;;;10.70;99.90;;;;;;4438245;28;658058;-76
2023/05/06 05:26:31;;;;;;;9.23;4.80;;;10.90;99.90;;;;;;4417936;28;657774;-75
2023/05/06 05:29:18;;;;;;;11.60;4.97;;;11.00;99.90;;;;;;4442036;28;657846;-75
2023/05/06 05:32:06;;;;;;;11.93;5.80;;;11.20;99.90;;;;;;4410224;28;657528;-74
2023/05/06 05:34:55;;;;;;;10.67;5.03;;;11.30;99.90;;;;;;4433294;28;658442;-75
2023/05/06 05:37:42;;;;;;;10.43;4.90;;;11.40;99.90;;;;;;4414437;28;658859;-76
2023/05/06 05:40:29;;;;;;;8.47;4.00;;;11.70;99.90;;;;;;4445203;28;657854;-75
2023/05/06 05:43:16;;;;;;;5.57;4.10;;;11.80;99.90;;;;;;4421845;28;656383;-75
2023/05/06 05:46:04;;;;;;;8.47;4.13;;;12.00;99.90;;;;;;4438764;28;656725;-75
2023/05/06 05:48:51;;;;;;;12.07;4.10;;;11.90;99.90;;;;;;4413830;28;656845;-77
2023/05/06 05:51:40;;;;;;;7.80;4.37;;;11.90;99.90;;;;;;4443104;28;658103;-75
2023/05/06 05:54:27;;;;;;;9.57;4.60;;;11.90;99.90;;;;;;4417670;28;656721;-75
2023/05/06 05:57:14;;;;;;;13.07;4.60;;;12.00;99.90;;;;;;4442271;28;656508;-75
2023/05/06 06:00:02;;;;;;;10.27;4.33;;;12.00;99.90;;;;;;4417787;28;658524;-75
2023/05/06 06:02:49;;;;;;;13.53;4.83;;;12.00;99.90;;;;;;4439429;28;657717;-75
2023/05/06 06:05:36;;;;;;;9.70;4.60;;;12.10;99.90;;;;;;4422081;28;657866;-75
2023/05/06 06:08:25;;;;;;;7.33;4.60;;;12.20;99.90;;;;;;4440173;28;657408;-76
2023/05/06 06:11:12;;;;;;;9.50;4.33;;;12.40;99.90;;;;;;4413863;28;658815;-76
2023/05/06 06:13:59;;;;;;;11.07;4.93;;;12.50;99.90;;;;;;4435673;28;656495;-76
2023/05/06 06:16:47;;;;;;;8.33;4.40;;;12.50;99.90;;;;;;4420481;28;658412;-76
2023/05/06 06:19:34;;;;;;;7.17;4.50;;;12.70;99.90;;;;;;4435880;28;655930;-76
2023/05/06 06:22:21;;;;;;;14.10;4.75;;;12.80;99.90;;;;;;4416380;28;656873;-73
2023/05/06 06:25:10;;;;;;;9.33;5.00;;;13.00;99.90;;;;;;4430531;28;657549;-74
2023/05/06 06:27:57;;;;;;;15.37;6.20;;;13.10;99.90;;;;;;4413199;28;657767;-76
2023/05/06 06:30:45;;;;;;;12.57;5.17;;;13.20;99.90;;;;;;4437510;28;657744;-74
2023/05/06 06:33:32;;;;;;;8.03;4.20;;;13.30;99.90;;;;;;4437874;28;658753;-77
2023/05/06 06:36:20;;;;;;;8.03;4.80;;;13.30;99.90;;;;;;4428028;28;656642;-76
2023/05/06 06:39:07;;;;;;;6.20;4.20;;;13.20;99.90;;;;;;4400733;28;656876;-74
2023/05/06 06:41:58;;;;;;;8.10;4.27;;;13.40;99.90;;;;;;4414813;28;656872;-76
2023/05/06 06:44:45;;;;;;;11.17;4.30;;;13.60;99.90;;;;;;4387036;28;656386;-74
2023/05/06 06:47:32;;;;;;;9.30;4.37;;;13.50;99.90;;;;;;4425825;28;659096;-76
2023/05/06 06:50:20;;;;;;;10.20;4.90;;;13.70;99.90;;;;;;4422133;28;655388;-76
2023/05/06 06:53:07;;;;;;;13.43;4.33;;;13.90;99.90;;;;;;4394729;28;658092;-75
2023/05/06 06:55:54;;;;;;;15.03;4.90;;;14.00;99.90;;;;;;4417967;28;657388;-75
2023/05/06 06:58:43;;;;;;;10.27;4.30;;;14.30;99.90;;;;;;4396298;28;658840;-75
2023/05/06 07:01:30;;;;;;;12.07;4.50;;;14.60;99.90;;;;;;4411923;28;657643;-73
2023/05/06 07:04:17;;;;;;;11.97;4.67;;;14.80;99.90;;;;;;4423111;28;657600;-74
2023/05/06 07:07:04;;;;;;;8.83;4.13;;;15.00;99.90;;;;;;4421677;28;657537;-75
2023/05/06 07:09:52;;;;;;;10.43;4.57;;;14.80;99.90;;;;;;4397266;28;657301;-76
2023/05/06 07:12:39;;;;;;;9.17;4.43;;;14.90;99.90;;;;;;4416308;28;657608;-75
2023/05/06 07:15:28;;;;;;;11.10;4.07;;;15.00;99.90;;;;;;4404604;28;656405;-74
2023/05/06 07:18:15;;;;;;;10.30;4.60;;;15.20;99.90;;;;;;4408660;28;657716;-73
2023/05/06 07:21:02;;;;;;;9.23;3.83;;;15.20;99.90;;;;;;4422229;28;657645;-76
2023/05/06 07:23:50;;;;;;;9.43;4.47;;;15.30;99.90;;;;;;4418897;28;656492;-75
2023/05/06 07:26:37;;;;;;;7.10;4.40;;;15.30;99.90;;;;;;4429323;28;657354;-76
2023/05/06 07:29:24;;;;;;;8.33;4.57;;;15.30;99.90;;;;;;4425359;28;658278;-76
2023/05/06 07:32:13;;;;;;;9.97;4.27;;;15.50;99.90;;;;;;4406402;28;657078;-74
2023/05/06 07:35:00;;;;;;;10.40;3.90;;;15.90;99.90;;;;;;4398908;28;656430;-73
2023/05/06 07:37:48;;;;;;;8.73;4.20;;;15.90;99.90;;;;;;4426632;28;657851;-74
2023/05/06 07:40:35;;;;;;;8.50;4.57;;;16.10;99.90;;;;;;4412726;28;656512;-72
2023/05/06 07:43:22;;;;;;;8.03;4.83;;;16.30;99.90;;;;;;4430394;28;656686;-74
2023/05/06 07:46:10;;;;;;;8.77;4.47;;;16.20;99.90;;;;;;4412760;28;656306;-72
2023/05/06 07:48:59;;;;;;;10.93;4.13;;;16.30;99.90;;;;;;4424243;28;656957;-74
2023/05/06 07:51:46;;;;;;;9.43;4.07;;;16.30;99.90;;;;;;4399325;28;657931;-74
2023/05/06 07:54:33;;;;;;;6.30;4.00;;;16.50;99.90;;;;;;4424346;28;656827;-74
2023/05/06 07:57:21;;;;;;;8.37;4.60;;;16.60;99.90;;;;;;4363320;28;656631;-71
2023/05/06 08:00:10;;;;;;;10.00;4.70;;;16.50;99.90;;;;;;4250036;28;657501;-73
2023/05/06 08:02:57;;;;;;;11.25;4.78;;;16.40;99.90;;;;;;4230174;28;658486;-72
2023/05/06 08:05:46;;;;;;;10.37;4.40;;;16.60;99.90;;;;;;4413595;28;658293;-74
2023/05/06 08:08:33;;;;;;;9.47;4.23;;;16.60;99.90;;;;;;4400127;28;657685;-75
2023/05/06 08:11:21;;;;;;;7.57;4.83;;;16.60;99.90;;;;;;4403666;28;657253;-72
2023/05/06 08:14:08;;;;;;;9.63;4.60;;;16.70;99.90;;;;;;4423853;28;656826;-73
2023/05/06 08:16:55;;;;;;;9.70;4.60;;;16.90;99.90;;;;;;4409206;28;656463;-72
2023/05/06 08:19:42;;;;;;;11.60;4.57;;;17.00;99.90;;;;;;4423282;28;657470;-74
2023/05/06 08:22:32;;;;;;;7.27;4.27;;;16.90;99.90;;;;;;4425228;28;657326;-73
2023/05/06 08:25:19;;;;;;;10.43;4.30;;;16.80;99.90;;;;;;4426099;28;656951;-73
2023/05/06 08:28:06;;;;;;;9.65;4.82;;;16.90;99.90;;;;;;4400254;28;658005;-72
2023/05/06 08:30:53;;;;;;;7.53;4.63;;;17.00;99.90;;;;;;4423894;28;657143;-73
2023/05/06 08:33:40;;;;;;;11.13;4.97;;;16.90;99.90;;;;;;4402248;28;656421;-72
2023/05/06 08:36:28;;;;;;;8.33;4.63;;;17.10;99.90;;;;;;4420232;28;658332;-73
2023/05/06 08:39:17;;;;;;;10.13;5.40;;;16.80;99.90;;;;;;4414195;28;656390;-73
2023/05/06 08:42:04;;;;;;;9.80;4.87;;;16.80;99.90;;;;;;4420050;28;657973;-73
2023/05/06 08:44:52;;;;;;;8.67;4.80;;;16.80;99.90;;;;;;4404066;28;656233;-72
2023/05/06 08:47:39;;;;;;;11.33;4.60;;;16.70;99.90;;;;;;4420026;28;656191;-73
2023/05/06 08:50:26;;;;;;;9.53;4.90;;;16.80;99.90;;;;;;4403949;28;657905;-72
2023/05/06 08:53:13;;;;;;;9.57;4.83;;;16.80;99.90;;;;;;4422921;28;657242;-72
2023/05/06 08:56:03;;;;;;;9.67;5.00;;;16.60;99.90;;;;;;4399979;28;657081;-72
2023/05/06 08:58:51;;;;;;;8.93;4.73;;;16.30;99.90;;;;;;4401921;28;656659;-72
2023/05/06 09:01:38;;;;;;;8.57;5.10;;;16.30;99.90;;;;;;4427950;28;657877;-73
2023/05/06 09:04:26;;;;;;;9.63;4.93;;;16.10;99.90;;;;;;4399104;28;656743;-72
2023/05/06 09:07:13;;;;;;;11.07;5.40;;;16.00;99.90;;;;;;4424867;28;656804;-72
2023/05/06 09:10:03;;;;;;;12.83;5.13;;;16.20;99.90;;;;;;4396254;28;658030;-72
2023/05/06 09:12:55;;;;;;;12.43;5.00;;;15.90;99.90;;;;;;4402691;28;657593;-72
2023/05/06 09:15:43;;;;;;;10.17;5.20;;;16.10;99.90;;;;;;4402299;28;657597;-73
2023/05/06 09:18:30;;;;;;;11.13;5.70;;;16.10;99.90;;;;;;4407668;28;657618;-72
2023/05/06 09:21:17;;;;;;;16.20;5.68;;;16.20;99.90;;;;;;4421816;28;658585;-72
2023/05/06 09:24:06;;;;;;;10.67;4.90;;;16.30;99.90;;;;;;4423832;28;657571;-72
2023/05/06 09:26:54;;;;;;;10.47;5.33;;;16.10;99.90;;;;;;4394041;28;658745;-76
2023/05/06 09:29:46;;;;;;;11.70;5.63;;;16.10;99.90;;;;;;4404127;28;657886;-76
2023/05/06 09:32:33;;;;;;;12.33;5.70;;;16.30;99.90;;;;;;4397085;28;657966;-77
2023/05/06 09:35:21;;;;;;;11.80;5.60;;;16.30;99.90;;;;;;4396373;28;658759;-76
2023/05/06 09:38:08;;;;;;;12.47;6.10;;;16.40;99.90;;;;;;4422190;28;658161;-75
2023/05/06 09:40:55;;;;;;;10.27;4.73;;;16.50;99.90;;;;;;4401745;28;658074;-76
2023/05/06 09:43:43;;;;;;;10.73;5.30;;;16.50;99.90;;;;;;4421876;28;658647;-75
2023/05/06 09:46:33;;;;;;;7.97;5.17;;;16.50;99.90;;;;;;4401437;28;658333;-75
2023/05/06 09:49:20;;;;;;;10.70;5.70;;;16.30;99.90;;;;;;4404865;28;656698;-75
2023/05/06 09:52:08;;;;;;;9.50;5.67;;;16.20;99.90;;;;;;4417477;28;658001;-74
2023/05/06 09:54:55;;;;;;;9.40;5.70;;;15.90;99.90;;;;;;4415217;28;657227;-77
2023/05/06 09:57:42;;;;;;;13.43;5.83;;;15.80;99.90;;;;;;4424815;28;657536;-76
2023/05/06 10:00:31;;;;;;;14.03;5.50;;;15.30;99.90;;;;;;4420767;28;657780;-74
2023/05/06 10:03:19;;;;;;;11.67;5.47;;;15.20;99.90;;;;;;4424907;28;658407;-75
2023/05/06 10:06:07;;;;;;;10.83;6.13;;;14.80;99.90;;;;;;4402174;28;658373;-74
2023/05/06 10:08:54;;;;;;;13.77;6.47;;;14.60;99.90;;;;;;4413623;28;657838;-74
2023/05/06 10:11:41;;;;;;;13.77;6.30;;;14.30;99.90;;;;;;4401166;28;658223;-74
2023/05/06 10:14:29;;;;;;;11.77;6.57;;;14.10;99.90;;;;;;4423061;28;657762;-74
2023/05/06 10:17:16;;;;;;;12.77;7.07;;;14.10;99.90;;;;;;4403385;28;658282;-73
2023/05/06 10:20:06;;;;;;;12.93;7.60;;;14.20;99.90;;;;;;4427730;28;658791;-73
2023/05/06 10:23:01;;;;;;;12.40;8.10;;;13.90;99.90;;;;;;4397444;28;658344;-74
2023/05/06 10:25:50;;;;;;;16.63;9.43;;;13.90;99.90;;;;;;4394407;28;657679;-74
2023/05/06 10:28:40;;;;;;;23.40;13.90;;;14.00;99.90;;;;;;4396653;28;657735;-74
2023/05/06 10:31:27;;;;;;;40.53;18.70;;;14.10;99.90;;;;;;4397653;28;659196;-73
2023/05/06 10:34:15;;;;;;;34.40;15.97;;;14.20;99.90;;;;;;4416870;28;658174;-73
2023/05/06 10:37:03;;;;;;;15.97;10.17;;;14.10;99.90;;;;;;4405121;28;658770;-73
2023/05/06 10:39:51;;;;;;;17.93;10.20;;;14.00;99.90;;;;;;4419677;28;659313;-72
2023/05/06 10:42:38;;;;;;;18.37;9.50;;;13.70;99.90;;;;;;4439563;28;658875;-74
2023/05/06 10:45:25;;;;;;;16.83;9.80;;;13.20;99.90;;;;;;4420801;28;657932;-73
2023/05/06 10:48:12;;;;;;;14.67;9.57;;;12.20;99.90;;;;;;4440762;28;657829;-73
2023/05/06 10:51:22;;;;;;;17.50;9.87;;;12.20;99.90;;;;;;4427035;28;657842;-73
2023/05/06 10:54:21;;;;;;;17.20;9.90;;;12.20;99.90;;;;;;4435171;28;657499;-75
2023/05/06 10:57:09;;;;;;;23.07;10.30;;;12.30;99.90;;;;;;4411373;28;657866;-74
2023/05/06 10:59:56;;;;;;;20.13;11.37;;;12.30;99.90;;;;;;4413031;28;659010;-74
2023/05/06 11:02:44;;;;;;;20.07;11.67;;;12.50;99.90;;;;;;4441192;28;658696;-74
2023/05/06 11:05:31;;;;;;;31.50;12.03;;;12.60;99.90;;;;;;4420307;28;659891;-74
2023/05/06 11:08:22;;;;;;;44.63;14.87;;;12.70;99.90;;;;;;4434818;28;659034;-74
2023/05/06 11:11:42;;;;;;;28.17;13.40;;;12.70;99.90;;;;;;4417501;28;658332;-74
2023/05/06 11:14:34;;;;;;;50.67;16.90;;;12.80;99.90;;;;;;4442429;28;660101;-75
2023/05/06 11:17:31;;;;;;;53.50;17.25;;;12.70;99.90;;;;;;4408629;28;658581;-74
2023/05/06 11:20:19;;;;;;;56.90;18.53;;;12.70;99.90;;;;;;4416629;28;658744;-74
2023/05/06 11:23:06;;;;;;;135.02;27.05;;;12.80;99.90;;;;;;4415154;28;658831;-75
2023/05/06 11:25:55;;;;;;;60.97;18.20;;;12.80;99.90;;;;;;4439618;28;660195;-75
2023/05/06 11:28:43;;;;;;;55.03;18.07;;;12.70;99.90;;;;;;4407818;28;659406;-75
2023/05/06 11:31:40;;;;;;;63.20;19.00;;;12.60;99.90;;;;;;4418016;28;659212;-75
2023/05/06 11:34:28;;;;;;;41.70;16.43;;;12.60;99.90;;;;;;4416635;28;658838;-75
2023/05/06 11:37:23;;;;;;;60.40;18.97;;;12.60;99.90;;;;;;4412307;28;658715;-75
2023/05/06 11:40:15;;;;;;;62.43;18.40;;;12.60;99.90;;;;;;4388648;28;659021;-75
2023/05/06 11:43:12;;;;;;;203.37;35.00;;;12.60;99.90;;;;;;4416426;28;659529;-75
2023/05/06 11:45:59;;;;;;;166.43;34.07;;;12.60;99.90;;;;;;4414559;28;659753;-76
2023/05/06 11:48:48;;;;;;;169.10;30.57;;;12.60;99.90;;;;;;4422953;28;660082;-73
2023/05/06 11:51:35;;;;;;;226.83;37.30;;;12.60;99.90;;;;;;4430078;28;660238;-75
2023/05/06 11:54:22;;;;;;;132.40;26.80;;;12.50;99.90;;;;;;4445117;28;660825;-74
2023/05/06 11:57:10;;;;;;;55.40;19.90;;;12.40;99.90;;;;;;4430738;28;659834;-72
2023/05/06 11:59:57;;;;;;;75.20;22.40;;;12.40;99.90;;;;;;4444419;28;660053;-72
2023/05/06 12:02:45;;;;;;;63.13;20.53;;;12.40;99.90;;;;;;4437867;28;658419;-73
2023/05/06 12:05:34;;;;;;;68.95;21.30;;;12.30;99.90;;;;;;4444362;28;658393;-72
2023/05/06 12:08:22;;;;;;;56.23;21.67;;;12.20;99.90;;;;;;4421526;28;659032;-74
2023/05/06 12:11:10;;;;;;;41.73;21.03;;;12.10;99.90;;;;;;4430226;28;658811;-74
2023/05/06 12:13:57;;;;;;;78.40;24.60;;;12.20;99.90;;;;;;4439634;28;659430;-74
2023/05/06 12:16:45;;;;;;;59.57;21.33;;;12.10;99.90;;;;;;4439527;28;658295;-74
2023/05/06 12:19:33;;;;;;;65.10;19.93;;;12.10;99.90;;;;;;4439065;28;658814;-74
2023/05/06 12:22:23;;;;;;;29.17;17.60;;;12.10;99.90;;;;;;4424453;28;659454;-73
2023/05/06 12:25:13;;;;;;;60.90;21.87;;;12.10;99.90;;;;;;4409855;28;661262;-73
2023/05/06 12:28:01;;;;;;;37.70;20.43;;;12.10;99.90;;;;;;4418470;28;659241;-73
2023/05/06 12:30:48;;;;;;;49.57;21.93;;;12.10;99.90;;;;;;4438157;28;659616;-73
2023/05/06 12:33:44;;;;;;;47.40;23.70;;;12.00;99.90;;;;;;4427519;28;658907;-73
2023/05/06 12:36:32;;;;;;;71.27;26.43;;;12.10;99.90;;;;;;4427085;28;658967;-74
2023/05/06 12:39:20;;;;;;;68.03;27.23;;;12.00;99.90;;;;;;4436737;28;659204;-73
2023/05/06 12:42:08;;;;;;;34.43;21.47;;;12.00;99.90;;;;;;4410078;28;659127;-74
2023/05/06 12:44:55;;;;;;;35.30;19.07;;;12.00;99.90;;;;;;4437649;28;658517;-73
2023/05/06 12:47:52;;;;;;;29.93;16.53;;;12.10;99.90;;;;;;4446218;28;659890;-73
2023/05/06 12:50:40;;;;;;;27.63;16.00;;;12.10;99.90;;;;;;4405294;28;658776;-73
2023/05/06 12:53:31;;;;;;;24.27;14.57;;;12.10;99.90;;;;;;4416682;28;659272;-73
2023/05/06 12:56:20;;;;;;;29.33;16.30;;;12.10;99.90;;;;;;4422635;28;659593;-73
2023/05/06 12:59:07;;;;;;;24.97;15.47;;;12.10;99.90;;;;;;4414799;28;659443;-73
2023/05/06 13:01:55;;;;;;;25.10;15.70;;;12.00;99.90;;;;;;4445397;28;659608;-73
2023/05/06 13:04:43;;;;;;;30.13;18.70;;;12.00;99.90;;;;;;4445473;28;658641;-74
2023/05/06 13:07:30;;;;;;;32.37;19.23;;;12.00;99.90;;;;;;4436102;28;659465;-74
2023/05/06 13:10:17;;;;;;;40.17;20.20;;;12.00;99.90;;;;;;4440472;28;658784;-74
2023/05/06 13:13:06;;;;;;;39.47;21.03;;;12.00;99.90;;;;;;4428960;28;658765;-74
2023/05/06 13:15:53;;;;;;;33.53;20.00;;;12.00;99.90;;;;;;4405596;28;658877;-74
2023/05/06 13:18:41;;;;;;;30.10;17.43;;;12.10;99.90;;;;;;4414125;28;658914;-75
2023/05/06 13:21:28;;;;;;;30.23;17.73;;;12.10;99.90;;;;;;4440174;28;658665;-75
2023/05/06 13:24:17;;;;;;;22.55;15.57;;;12.00;99.90;;;;;;4413111;28;658781;-74
2023/05/06 13:27:04;;;;;;;28.77;15.40;;;12.00;99.90;;;;;;4431740;28;658657;-75
2023/05/06 13:29:53;;;;;;;38.33;14.90;;;12.00;99.90;;;;;;4408922;28;658801;-74
2023/05/06 13:32:40;;;;;;;28.50;17.42;;;11.90;99.90;;;;;;4417651;28;658645;-74
2023/05/06 13:35:29;;;;;;;34.03;20.30;;;11.80;99.90;;;;;;4442269;28;659086;-74
2023/05/06 13:38:16;;;;;;;35.57;20.87;;;11.70;99.90;;;;;;4411728;28;658625;-74
2023/05/06 13:41:03;;;;;;;35.13;20.10;;;11.60;99.90;;;;;;4442314;28;659801;-75
2023/05/06 13:43:51;;;;;;;33.67;20.37;;;11.60;99.90;;;;;;4409273;28;658754;-75
2023/05/06 13:46:39;;;;;;;33.63;20.13;;;11.70;99.90;;;;;;4439344;28;658945;-75
2023/05/06 13:49:26;;;;;;;37.43;20.93;;;11.80;99.90;;;;;;4405832;28;659244;-75
2023/05/06 13:52:14;;;;;;;32.43;20.37;;;11.80;99.90;;;;;;4431057;28;659007;-75
2023/05/06 13:55:01;;;;;;;32.33;20.10;;;11.90;99.90;;;;;;4413828;28;659431;-75
2023/05/06 13:57:48;;;;;;;32.08;19.83;;;12.10;99.90;;;;;;4429563;28;660705;-75
2023/05/06 14:00:35;;;;;;;30.63;19.27;;;12.10;99.90;;;;;;4409182;28;659157;-75
2023/05/06 14:03:24;;;;;;;30.07;18.70;;;12.30;99.90;;;;;;4435121;28;659537;-74
2023/05/06 14:06:11;;;;;;;33.47;19.90;;;12.40;99.90;;;;;;4418083;28;658334;-75
2023/05/06 14:08:59;;;;;;;26.90;18.40;;;12.50;99.90;;;;;;4433971;28;658846;-75
2023/05/06 14:11:46;;;;;;;31.90;18.80;;;12.60;99.90;;;;;;4421668;28;658667;-74
2023/05/06 14:14:33;;;;;;;34.10;20.83;;;12.50;99.90;;;;;;4434920;28;658403;-75
2023/05/06 14:17:20;;;;;;;33.77;22.27;;;12.60;99.90;;;;;;4409276;28;659098;-75